Vandalia, Illinois
Current Conditions -  °F | °C
As of 7:55 PM on Tuesday 25 Nov 2014 (Local Time) from KENL Reporting Station
Clear Clear  
Wind Chill: 27°   Ceiling: Unl
Heat Index: 27°   Visibility: 10mi
Dew Point: 24°   Wind: 3mph
Humidity: 90%   Direction: 110°ESE
Pressure: 30.2"   Gusts: NA
Location:  38.96°N, 89.1°W
Report Text: KENL 260155Z AUTO 11003KT 10SM CLR M03/M04 A3020 RMK AO2 T10271042
Loading
Personal Weather Stations






























Interactive Weather Map New forecast layout! Learn more

10-Day Weather Forecast

Advertisements
Track Severe Weather on mobile